KLRU/LRU METAR and TAF weather

Enter ICAO airport designator
Station Type Date Time Source
KLRU METAR 2018/12/10 12:55 UTC NOAA

KLRU 101255Z AUTO 09004KT 10SM CLR 01/M01 A3037 RMK AO2 T00061009


Station Type Date Time Source
KLRU Decoded METAR 2018/12/10 12:55 UTC NOAA

Las Cruces, Las Cruces International Airport, NM, United States (KLRU) 32-17-22N 106-55-19W
Dec 10, 2018 - 07:55 AM EST / 2018.12.10 1255 UTC
Wind: from the E (090 degrees) at 5 MPH (4 KT):0
Visibility: 10 mile(s):0
Sky conditions: clear
Temperature: 33.1 F (0.6 C)
Windchill: 28 F (-2 C):1
Dew Point: 30.4 F (-0.9 C)
Relative Humidity: 89%
Pressure (altimeter): 30.37 in. Hg (1028 hPa)
ob: KLRU 101255Z AUTO 09004KT 10SM CLR 01/M01 A3037 RMK AO2 T00061009
cycle: 13

Station Type Date Time Source
KLRU TAF 2018/12/10 12:24 UTC NOAA

TAF KLRU 101121Z 1012/1112 34006KT P6SM FEW250
FM101500 VRB04KT P6SM BKN200


Example: see airport list